Sint-Pieters-Leeuw, Belgium
Current Conditions -  °F | °C
As of 10:20 AM on Saturday 27 Dec 2014 (Local Time) from EBBR Reporting Station
Broken Clouds Broken Clouds  
Wind Chill: 37°   Ceiling: 1400
Heat Index: 37°   Visibility: 6mi
Dew Point: 34°   Wind: 2mph
Humidity: 87%   Direction: 190°S
Pressure: 29.29"   Gusts: NA
Location:  50.78°N, 4.24°E
Report Text: EBBR 270920Z 19002KT 9999 SCT010 BKN014 BKN024 03/01 Q0992 BECMG BKN009
Loading
Personal Weather Stations






























Interactive Weather Map New forecast layout! Learn more

10-Day Weather Forecast

Advertisements
Track Severe Weather on mobile